sensor_id;sensor_type;location;lat;lon;timestamp;temperature;humidity
7218;DHT22;3650;53.580;10.094;2022-07-23T00:00:07;18.30;59.80
7218;DHT22;3650;53.580;10.094;2022-07-23T00:02:35;18.30;60.10
7218;DHT22;3650;53.580;10.094;2022-07-23T00:05:03;18.30;59.10
7218;DHT22;3650;53.580;10.094;2022-07-23T00:07:30;18.30;59.40
7218;DHT22;3650;53.580;10.094;2022-07-23T00:09:57;18.30;59.90
7218;DHT22;3650;53.580;10.094;2022-07-23T00:12:24;18.30;59.70
7218;DHT22;3650;53.580;10.094;2022-07-23T00:14:51;18.40;59.50
7218;DHT22;3650;53.580;10.094;2022-07-23T00:17:18;18.30;58.20
7218;DHT22;3650;53.580;10.094;2022-07-23T00:19:46;18.30;57.80
7218;DHT22;3650;53.580;10.094;2022-07-23T00:22:13;18.30;57.60
7218;DHT22;3650;53.580;10.094;2022-07-23T00:24:40;18.30;58.60
7218;DHT22;3650;53.580;10.094;2022-07-23T00:27:07;18.30;58.40
7218;DHT22;3650;53.580;10.094;2022-07-23T00:29:33;18.30;57.80
7218;DHT22;3650;53.580;10.094;2022-07-23T00:32:00;18.20;57.80
7218;DHT22;3650;53.580;10.094;2022-07-23T00:34:27;18.20;57.90
7218;DHT22;3650;53.580;10.094;2022-07-23T00:36:56;18.10;57.40
7218;DHT22;3650;53.580;10.094;2022-07-23T00:39:22;18.20;57.50
7218;DHT22;3650;53.580;10.094;2022-07-23T00:41:50;18.20;57.80
7218;DHT22;3650;53.580;10.094;2022-07-23T00:44:18;18.20;56.80
7218;DHT22;3650;53.580;10.094;2022-07-23T00:46:47;18.20;56.80
7218;DHT22;3650;53.580;10.094;2022-07-23T00:49:14;18.20;56.80
7218;DHT22;3650;53.580;10.094;2022-07-23T00:51:41;18.20;56.90
7218;DHT22;3650;53.580;10.094;2022-07-23T00:54:10;18.20;57.10
7218;DHT22;3650;53.580;10.094;2022-07-23T00:56:37;18.10;56.70
7218;DHT22;3650;53.580;10.094;2022-07-23T00:59:05;18.10;56.70
7218;DHT22;3650;53.580;10.094;2022-07-23T01:01:32;18.10;56.70
7218;DHT22;3650;53.580;10.094;2022-07-23T01:03:59;18.10;56.80
7218;DHT22;3650;53.580;10.094;2022-07-23T01:06:26;18.10;57.60
7218;DHT22;3650;53.580;10.094;2022-07-23T01:08:53;18.10;57.90
7218;DHT22;3650;53.580;10.094;2022-07-23T01:11:23;18.10;60.10
7218;DHT22;3650;53.580;10.094;2022-07-23T01:13:50;18.10;59.30
7218;DHT22;3650;53.580;10.094;2022-07-23T01:16:16;18.10;59.80
7218;DHT22;3650;53.580;10.094;2022-07-23T01:18:43;18.10;60.60
7218;DHT22;3650;53.580;10.094;2022-07-23T01:21:11;18.10;61.10
7218;DHT22;3650;53.580;10.094;2022-07-23T01:23:41;18.10;61.20
7218;DHT22;3650;53.580;10.094;2022-07-23T01:26:08;18.10;61.30
7218;DHT22;3650;53.580;10.094;2022-07-23T01:28:35;18.10;61.30
7218;DHT22;3650;53.580;10.094;2022-07-23T01:31:01;18.10;61.30
7218;DHT22;3650;53.580;10.094;2022-07-23T01:33:28;18.20;60.90
7218;DHT22;3650;53.580;10.094;2022-07-23T01:35:55;18.20;60.50
7218;DHT22;3650;53.580;10.094;2022-07-23T01:38:22;18.20;60.00
7218;DHT22;3650;53.580;10.094;2022-07-23T01:40:50;18.20;60.00
7218;DHT22;3650;53.580;10.094;2022-07-23T01:43:17;18.20;60.00
7218;DHT22;3650;53.580;10.094;2022-07-23T01:45:44;18.30;60.10
7218;DHT22;3650;53.580;10.094;2022-07-23T01:48:11;18.20;59.50
7218;DHT22;3650;53.580;10.094;2022-07-23T01:50:37;18.20;60.10
7218;DHT22;3650;53.580;10.094;2022-07-23T01:53:04;18.20;59.70
7218;DHT22;3650;53.580;10.094;2022-07-23T01:55:31;18.20;59.40
7218;DHT22;3650;53.580;10.094;2022-07-23T01:57:59;18.20;59.20
7218;DHT22;3650;53.580;10.094;2022-07-23T02:00:26;18.20;60.50
7218;DHT22;3650;53.580;10.094;2022-07-23T02:02:53;18.20;59.70
7218;DHT22;3650;53.580;10.094;2022-07-23T02:05:20;18.10;59.30
7218;DHT22;3650;53.580;10.094;2022-07-23T02:07:47;18.10;58.70
7218;DHT22;3650;53.580;10.094;2022-07-23T02:10:14;18.10;58.60
7218;DHT22;3650;53.580;10.094;2022-07-23T02:12:40;18.10;59.10
7218;DHT22;3650;53.580;10.094;2022-07-23T02:15:09;18.00;60.40
7218;DHT22;3650;53.580;10.094;2022-07-23T02:17:36;18.00;60.00
7218;DHT22;3650;53.580;10.094;2022-07-23T02:20:03;18.00;59.60
7218;DHT22;3650;53.580;10.094;2022-07-23T02:22:30;18.00;59.90
7218;DHT22;3650;53.580;10.094;2022-07-23T02:24:57;17.90;60.30
7218;DHT22;3650;53.580;10.094;2022-07-23T02:27:24;17.90;60.80
7218;DHT22;3650;53.580;10.094;2022-07-23T02:29:51;17.80;61.00
7218;DHT22;3650;53.580;10.094;2022-07-23T02:32:19;17.90;60.40
7218;DHT22;3650;53.580;10.094;2022-07-23T02:34:46;17.70;60.70
7218;DHT22;3650;53.580;10.094;2022-07-23T02:37:13;17.70;61.20
7218;DHT22;3650;53.580;10.094;2022-07-23T02:39:40;17.70;61.60
7218;DHT22;3650;53.580;10.094;2022-07-23T02:42:07;17.70;61.00
7218;DHT22;3650;53.580;10.094;2022-07-23T02:44:34;17.70;61.70
7218;DHT22;3650;53.580;10.094;2022-07-23T02:47:01;17.70;60.70
7218;DHT22;3650;53.580;10.094;2022-07-23T02:49:29;17.70;60.90
7218;DHT22;3650;53.580;10.094;2022-07-23T02:51:56;17.70;61.10
7218;DHT22;3650;53.580;10.094;2022-07-23T02:54:23;17.70;63.30
7218;DHT22;3650;53.580;10.094;2022-07-23T02:56:49;17.60;63.70
7218;DHT22;3650;53.580;10.094;2022-07-23T02:59:17;17.60;62.90
7218;DHT22;3650;53.580;10.094;2022-07-23T03:01:44;17.60;62.80
7218;DHT22;3650;53.580;10.094;2022-07-23T03:04:11;17.60;62.40
7218;DHT22;3650;53.580;10.094;2022-07-23T03:06:39;17.50;63.90
7218;DHT22;3650;53.580;10.094;2022-07-23T03:09:06;17.50;63.20
7218;DHT22;3650;53.580;10.094;2022-07-23T03:11:33;17.50;63.00
7218;DHT22;3650;53.580;10.094;2022-07-23T03:13:59;17.40;63.70
7218;DHT22;3650;53.580;10.094;2022-07-23T03:16:26;17.40;63.40
7218;DHT22;3650;53.580;10.094;2022-07-23T03:18:53;17.50;63.70
7218;DHT22;3650;53.580;10.094;2022-07-23T03:21:20;17.50;63.60
7218;DHT22;3650;53.580;10.094;2022-07-23T03:23:48;17.50;64.20
7218;DHT22;3650;53.580;10.094;2022-07-23T03:26:15;17.50;64.50
7218;DHT22;3650;53.580;10.094;2022-07-23T03:28:42;17.50;64.80
7218;DHT22;3650;53.580;10.094;2022-07-23T03:31:09;17.50;64.70
7218;DHT22;3650;53.580;10.094;2022-07-23T03:33:35;17.50;65.60
7218;DHT22;3650;53.580;10.094;2022-07-23T03:36:02;17.50;65.10
7218;DHT22;3650;53.580;10.094;2022-07-23T03:38:29;17.50;65.20
7218;DHT22;3650;53.580;10.094;2022-07-23T03:40:57;17.50;65.40
7218;DHT22;3650;53.580;10.094;2022-07-23T03:43:24;17.50;65.40
7218;DHT22;3650;53.580;10.094;2022-07-23T03:45:51;17.60;66.60
7218;DHT22;3650;53.580;10.094;2022-07-23T03:48:18;17.60;65.10
7218;DHT22;3650;53.580;10.094;2022-07-23T03:50:45;17.60;65.70
7218;DHT22;3650;53.580;10.094;2022-07-23T03:53:12;17.60;65.50
7218;DHT22;3650;53.580;10.094;2022-07-23T03:55:38;17.60;66.80
7218;DHT22;3650;53.580;10.094;2022-07-23T03:58:07;17.60;65.90
7218;DHT22;3650;53.580;10.094;2022-07-23T04:00:33;17.60;65.80
7218;DHT22;3650;53.580;10.094;2022-07-23T04:03:00;17.60;66.40
7218;DHT22;3650;53.580;10.094;2022-07-23T04:05:27;17.60;66.30
7218;DHT22;3650;53.580;10.094;2022-07-23T04:07:54;17.60;67.10
7218;DHT22;3650;53.580;10.094;2022-07-23T04:10:21;17.70;67.00
7218;DHT22;3650;53.580;10.094;2022-07-23T04:12:48;17.70;67.00
7218;DHT22;3650;53.580;10.094;2022-07-23T04:15:16;17.70;66.20
7218;DHT22;3650;53.580;10.094;2022-07-23T04:17:43;17.70;67.60
7218;DHT22;3650;53.580;10.094;2022-07-23T04:20:11;17.70;68.60
7218;DHT22;3650;53.580;10.094;2022-07-23T04:22:38;17.70;68.60
7218;DHT22;3650;53.580;10.094;2022-07-23T04:25:05;17.70;68.50
7218;DHT22;3650;53.580;10.094;2022-07-23T04:27:32;17.70;68.80
7218;DHT22;3650;53.580;10.094;2022-07-23T04:29:59;17.70;68.60
7218;DHT22;3650;53.580;10.094;2022-07-23T04:32:27;17.70;69.10
7218;DHT22;3650;53.580;10.094;2022-07-23T04:34:54;17.60;70.30
7218;DHT22;3650;53.580;10.094;2022-07-23T04:37:21;17.70;69.80
7218;DHT22;3650;53.580;10.094;2022-07-23T04:39:48;17.70;69.20
7218;DHT22;3650;53.580;10.094;2022-07-23T04:42:15;17.60;68.50
7218;DHT22;3650;53.580;10.094;2022-07-23T04:44:42;17.60;69.00
7218;DHT22;3650;53.580;10.094;2022-07-23T04:47:08;17.50;68.40
7218;DHT22;3650;53.580;10.094;2022-07-23T04:49:37;17.50;68.40
7218;DHT22;3650;53.580;10.094;2022-07-23T04:52:04;17.50;68.40
7218;DHT22;3650;53.580;10.094;2022-07-23T04:54:31;17.50;69.10
7218;DHT22;3650;53.580;10.094;2022-07-23T04:56:57;17.50;68.40
7218;DHT22;3650;53.580;10.094;2022-07-23T04:59:24;17.50;68.40
7218;DHT22;3650;53.580;10.094;2022-07-23T05:01:51;17.50;68.40
7218;DHT22;3650;53.580;10.094;2022-07-23T05:04:18;17.60;68.90
7218;DHT22;3650;53.580;10.094;2022-07-23T05:06:46;17.60;68.70
7218;DHT22;3650;53.580;10.094;2022-07-23T05:09:13;17.70;69.30
7218;DHT22;3650;53.580;10.094;2022-07-23T05:11:40;17.60;69.30
7218;DHT22;3650;53.580;10.094;2022-07-23T05:14:07;17.60;70.70
7218;DHT22;3650;53.580;10.094;2022-07-23T05:16:33;17.50;72.10
7218;DHT22;3650;53.580;10.094;2022-07-23T05:19:00;17.30;72.90
7218;DHT22;3650;53.580;10.094;2022-07-23T05:21:27;17.40;71.70
7218;DHT22;3650;53.580;10.094;2022-07-23T05:23:55;17.40;70.60
7218;DHT22;3650;53.580;10.094;2022-07-23T05:26:22;17.40;69.20
7218;DHT22;3650;53.580;10.094;2022-07-23T05:28:49;17.40;69.10
7218;DHT22;3650;53.580;10.094;2022-07-23T05:31:19;17.40;69.10
7218;DHT22;3650;53.580;10.094;2022-07-23T05:33:46;17.50;68.40
7218;DHT22;3650;53.580;10.094;2022-07-23T05:36:13;17.50;68.40
7218;DHT22;3650;53.580;10.094;2022-07-23T05:38:40;17.50;68.40
7218;DHT22;3650;53.580;10.094;2022-07-23T05:41:08;17.50;68.70
7218;DHT22;3650;53.580;10.094;2022-07-23T05:43:35;17.50;69.50
7218;DHT22;3650;53.580;10.094;2022-07-23T05:46:01;17.50;70.00
7218;DHT22;3650;53.580;10.094;2022-07-23T05:48:28;17.50;69.40
7218;DHT22;3650;53.580;10.094;2022-07-23T05:50:55;17.50;69.80
7218;DHT22;3650;53.580;10.094;2022-07-23T05:53:22;17.50;70.30
7218;DHT22;3650;53.580;10.094;2022-07-23T05:55:49;17.50;70.70
7218;DHT22;3650;53.580;10.094;2022-07-23T05:58:17;17.50;70.00
7218;DHT22;3650;53.580;10.094;2022-07-23T06:00:44;17.50;70.00
7218;DHT22;3650;53.580;10.094;2022-07-23T06:03:11;17.60;72.50
7218;DHT22;3650;53.580;10.094;2022-07-23T06:05:38;17.60;70.10
7218;DHT22;3650;53.580;10.094;2022-07-23T06:08:04;17.60;68.80
7218;DHT22;3650;53.580;10.094;2022-07-23T06:10:31;17.60;67.90
7218;DHT22;3650;53.580;10.094;2022-07-23T06:12:58;17.60;68.50
7218;DHT22;3650;53.580;10.094;2022-07-23T06:15:26;17.70;68.60
7218;DHT22;3650;53.580;10.094;2022-07-23T06:17:53;17.70;68.50
7218;DHT22;3650;53.580;10.094;2022-07-23T06:20:20;17.70;68.60
7218;DHT22;3650;53.580;10.094;2022-07-23T06:22:47;17.70;69.80
7218;DHT22;3650;53.580;10.094;2022-07-23T06:25:13;17.80;68.70
7218;DHT22;3650;53.580;10.094;2022-07-23T06:27:41;17.80;68.60
7218;DHT22;3650;53.580;10.094;2022-07-23T06:30:09;17.80;67.90
7218;DHT22;3650;53.580;10.094;2022-07-23T06:32:38;17.80;67.10
7218;DHT22;3650;53.580;10.094;2022-07-23T06:35:05;17.80;68.20
7218;DHT22;3650;53.580;10.094;2022-07-23T06:37:32;17.80;67.40
7218;DHT22;3650;53.580;10.094;2022-07-23T06:39:59;17.90;68.70
7218;DHT22;3650;53.580;10.094;2022-07-23T06:42:25;17.90;68.70
7218;DHT22;3650;53.580;10.094;2022-07-23T06:44:52;17.90;68.70
7218;DHT22;3650;53.580;10.094;2022-07-23T06:47:19;17.90;69.30
7218;DHT22;3650;53.580;10.094;2022-07-23T06:49:47;17.80;69.40
7218;DHT22;3650;53.580;10.094;2022-07-23T06:52:14;17.90;68.80
7218;DHT22;3650;53.580;10.094;2022-07-23T06:54:41;18.00;68.40
7218;DHT22;3650;53.580;10.094;2022-07-23T06:57:08;18.10;67.60
7218;DHT22;3650;53.580;10.094;2022-07-23T06:59:34;18.10;67.90
7218;DHT22;3650;53.580;10.094;2022-07-23T07:02:05;18.20;67.90
7218;DHT22;3650;53.580;10.094;2022-07-23T07:04:32;18.20;67.10
7218;DHT22;3650;53.580;10.094;2022-07-23T07:07:00;18.20;67.10
7218;DHT22;3650;53.580;10.094;2022-07-23T07:09:28;18.20;65.70
7218;DHT22;3650;53.580;10.094;2022-07-23T07:11:55;18.10;65.10
7218;DHT22;3650;53.580;10.094;2022-07-23T07:14:22;18.10;65.70
7218;DHT22;3650;53.580;10.094;2022-07-23T07:16:49;18.10;65.70
7218;DHT22;3650;53.580;10.094;2022-07-23T07:19:16;18.10;65.80
7218;DHT22;3650;53.580;10.094;2022-07-23T07:21:42;18.10;65.60
7218;DHT22;3650;53.580;10.094;2022-07-23T07:24:11;18.10;65.90
7218;DHT22;3650;53.580;10.094;2022-07-23T07:26:37;18.10;64.50
7218;DHT22;3650;53.580;10.094;2022-07-23T07:29:05;18.10;65.10
7218;DHT22;3650;53.580;10.094;2022-07-23T07:31:32;18.00;64.30
7218;DHT22;3650;53.580;10.094;2022-07-23T07:33:59;18.10;65.00
7218;DHT22;3650;53.580;10.094;2022-07-23T07:36:26;18.10;64.40
7218;DHT22;3650;53.580;10.094;2022-07-23T07:38:53;18.00;68.80
7218;DHT22;3650;53.580;10.094;2022-07-23T07:41:21;17.70;75.00
7218;DHT22;3650;53.580;10.094;2022-07-23T07:43:49;17.60;79.10
7218;DHT22;3650;53.580;10.094;2022-07-23T07:46:16;17.50;81.90
7218;DHT22;3650;53.580;10.094;2022-07-23T07:48:43;17.50;82.50
7218;DHT22;3650;53.580;10.094;2022-07-23T07:51:10;17.30;87.30
7218;DHT22;3650;53.580;10.094;2022-07-23T07:53:36;17.20;88.20
7218;DHT22;3650;53.580;10.094;2022-07-23T07:56:04;17.30;86.50
7218;DHT22;3650;53.580;10.094;2022-07-23T07:58:32;17.30;88.90
7218;DHT22;3650;53.580;10.094;2022-07-23T08:00:59;17.30;86.80
7218;DHT22;3650;53.580;10.094;2022-07-23T08:03:26;17.20;87.80
7218;DHT22;3650;53.580;10.094;2022-07-23T08:05:53;17.30;87.40
7218;DHT22;3650;53.580;10.094;2022-07-23T08:08:19;17.40;89.00
7218;DHT22;3650;53.580;10.094;2022-07-23T08:10:46;17.40;84.50
7218;DHT22;3650;53.580;10.094;2022-07-23T08:13:14;17.50;85.10
7218;DHT22;3650;53.580;10.094;2022-07-23T08:15:43;17.60;85.80
7218;DHT22;3650;53.580;10.094;2022-07-23T08:18:10;17.70;84.50
7218;DHT22;3650;53.580;10.094;2022-07-23T08:20:37;17.80;83.00
7218;DHT22;3650;53.580;10.094;2022-07-23T08:23:05;17.90;80.20
7218;DHT22;3650;53.580;10.094;2022-07-23T08:25:34;17.90;79.00
7218;DHT22;3650;53.580;10.094;2022-07-23T08:28:02;17.90;75.20
7218;DHT22;3650;53.580;10.094;2022-07-23T08:30:30;17.90;78.50
7218;DHT22;3650;53.580;10.094;2022-07-23T08:33:01;17.80;82.10
7218;DHT22;3650;53.580;10.094;2022-07-23T08:35:30;17.60;87.10
7218;DHT22;3650;53.580;10.094;2022-07-23T08:37:59;17.40;90.20
7218;DHT22;3650;53.580;10.094;2022-07-23T08:40:28;17.50;89.50
7218;DHT22;3650;53.580;10.094;2022-07-23T08:42:55;17.60;88.00
7218;DHT22;3650;53.580;10.094;2022-07-23T08:45:23;17.60;86.00
7218;DHT22;3650;53.580;10.094;2022-07-23T08:47:53;17.70;85.80
7218;DHT22;3650;53.580;10.094;2022-07-23T08:50:23;17.60;86.10
7218;DHT22;3650;53.580;10.094;2022-07-23T08:52:52;17.70;85.50
7218;DHT22;3650;53.580;10.094;2022-07-23T08:55:20;17.70;84.80
7218;DHT22;3650;53.580;10.094;2022-07-23T08:57:49;17.80;83.70
7218;DHT22;3650;53.580;10.094;2022-07-23T09:00:18;17.90;82.50
7218;DHT22;3650;53.580;10.094;2022-07-23T09:02:45;18.00;80.60
7218;DHT22;3650;53.580;10.094;2022-07-23T09:05:13;18.00;79.30
7218;DHT22;3650;53.580;10.094;2022-07-23T09:08:06;18.10;77.90
7218;DHT22;3650;53.580;10.094;2022-07-23T09:10:50;18.10;77.10
7218;DHT22;3650;53.580;10.094;2022-07-23T09:13:32;18.10;71.80
7218;DHT22;3650;53.580;10.094;2022-07-23T09:16:01;18.00;69.60
7218;DHT22;3650;53.580;10.094;2022-07-23T09:18:40;18.10;67.50
7218;DHT22;3650;53.580;10.094;2022-07-23T09:21:18;18.10;68.50
7218;DHT22;3650;53.580;10.094;2022-07-23T09:23:49;18.20;69.00
7218;DHT22;3650;53.580;10.094;2022-07-23T09:26:21;18.30;69.10
7218;DHT22;3650;53.580;10.094;2022-07-23T09:28:54;18.40;69.20
7218;DHT22;3650;53.580;10.094;2022-07-23T09:31:22;18.50;69.30
7218;DHT22;3650;53.580;10.094;2022-07-23T09:33:49;18.60;66.60
7218;DHT22;3650;53.580;10.094;2022-07-23T09:36:17;18.60;63.70
7218;DHT22;3650;53.580;10.094;2022-07-23T09:38:54;18.70;63.50
7218;DHT22;3650;53.580;10.094;2022-07-23T09:41:21;18.80;62.60
7218;DHT22;3650;53.580;10.094;2022-07-23T09:43:55;18.80;60.30
7218;DHT22;3650;53.580;10.094;2022-07-23T09:46:24;18.90;61.50
7218;DHT22;3650;53.580;10.094;2022-07-23T09:48:51;18.90;63.00
7218;DHT22;3650;53.580;10.094;2022-07-23T09:51:19;19.00;61.30
7218;DHT22;3650;53.580;10.094;2022-07-23T09:53:51;19.00;61.60
7218;DHT22;3650;53.580;10.094;2022-07-23T09:56:20;19.10;60.70
7218;DHT22;3650;53.580;10.094;2022-07-23T09:58:49;19.10;60.10
7218;DHT22;3650;53.580;10.094;2022-07-23T10:01:16;19.10;59.70
7218;DHT22;3650;53.580;10.094;2022-07-23T10:03:43;19.10;59.50
7218;DHT22;3650;53.580;10.094;2022-07-23T10:06:12;19.10;59.20
7218;DHT22;3650;53.580;10.094;2022-07-23T10:08:40;19.00;59.10
7218;DHT22;3650;53.580;10.094;2022-07-23T10:11:08;19.00;59.50
7218;DHT22;3650;53.580;10.094;2022-07-23T10:13:37;19.00;58.20
7218;DHT22;3650;53.580;10.094;2022-07-23T10:16:27;19.10;57.70
7218;DHT22;3650;53.580;10.094;2022-07-23T10:18:54;19.00;57.70
7218;DHT22;3650;53.580;10.094;2022-07-23T10:21:25;19.00;56.10
7218;DHT22;3650;53.580;10.094;2022-07-23T10:24:08;19.00;57.60
7218;DHT22;3650;53.580;10.094;2022-07-23T10:26:41;19.00;56.30
7218;DHT22;3650;53.580;10.094;2022-07-23T10:29:17;19.00;56.50
7218;DHT22;3650;53.580;10.094;2022-07-23T10:31:52;19.00;55.70
7218;DHT22;3650;53.580;10.094;2022-07-23T10:34:29;19.00;55.20
7218;DHT22;3650;53.580;10.094;2022-07-23T10:37:04;19.00;54.70
7218;DHT22;3650;53.580;10.094;2022-07-23T10:39:35;19.00;54.80
7218;DHT22;3650;53.580;10.094;2022-07-23T10:42:10;19.10;56.10
7218;DHT22;3650;53.580;10.094;2022-07-23T10:44:43;19.10;56.70
7218;DHT22;3650;53.580;10.094;2022-07-23T10:47:10;19.20;56.20
7218;DHT22;3650;53.580;10.094;2022-07-23T10:49:47;19.30;52.50
7218;DHT22;3650;53.580;10.094;2022-07-23T10:52:22;19.30;49.30
7218;DHT22;3650;53.580;10.094;2022-07-23T10:54:52;19.30;49.30
7218;DHT22;3650;53.580;10.094;2022-07-23T10:57:21;19.40;50.30
7218;DHT22;3650;53.580;10.094;2022-07-23T11:00:21;19.40;51.60
7218;DHT22;3650;53.580;10.094;2022-07-23T11:02:49;19.50;53.00
7218;DHT22;3650;53.580;10.094;2022-07-23T11:05:18;19.60;53.80
7218;DHT22;3650;53.580;10.094;2022-07-23T11:08:11;19.70;53.00
7218;DHT22;3650;53.580;10.094;2022-07-23T11:10:42;19.70;53.20
7218;DHT22;3650;53.580;10.094;2022-07-23T11:13:28;19.80;53.30
7218;DHT22;3650;53.580;10.094;2022-07-23T11:16:13;19.80;53.10
7218;DHT22;3650;53.580;10.094;2022-07-23T11:19:07;19.80;55.30
7218;DHT22;3650;53.580;10.094;2022-07-23T11:21:50;19.80;54.30
7218;DHT22;3650;53.580;10.094;2022-07-23T11:24:22;19.60;55.60
7218;DHT22;3650;53.580;10.094;2022-07-23T11:26:54;19.40;57.00
7218;DHT22;3650;53.580;10.094;2022-07-23T11:29:44;19.40;57.90
7218;DHT22;3650;53.580;10.094;2022-07-23T11:32:33;19.30;57.90
7218;DHT22;3650;53.580;10.094;2022-07-23T11:35:01;19.30;57.40
7218;DHT22;3650;53.580;10.094;2022-07-23T11:37:33;19.30;58.30
7218;DHT22;3650;53.580;10.094;2022-07-23T11:40:02;19.30;57.80
7218;DHT22;3650;53.580;10.094;2022-07-23T11:42:29;19.40;57.90
7218;DHT22;3650;53.580;10.094;2022-07-23T11:44:56;19.40;57.90
7218;DHT22;3650;53.580;10.094;2022-07-23T11:47:24;19.40;58.70
7218;DHT22;3650;53.580;10.094;2022-07-23T11:49:54;19.40;58.00
7218;DHT22;3650;53.580;10.094;2022-07-23T11:52:22;19.40;57.90
7218;DHT22;3650;53.580;10.094;2022-07-23T11:54:51;19.40;56.10
7218;DHT22;3650;53.580;10.094;2022-07-23T11:57:19;19.40;57.20
7218;DHT22;3650;53.580;10.094;2022-07-23T11:59:51;19.50;55.00
7218;DHT22;3650;53.580;10.094;2022-07-23T12:02:20;19.50;54.40
7218;DHT22;3650;53.580;10.094;2022-07-23T12:04:50;19.50;54.60
7218;DHT22;3650;53.580;10.094;2022-07-23T12:07:28;19.40;55.50
7218;DHT22;3650;53.580;10.094;2022-07-23T12:09:56;19.40;54.50
7218;DHT22;3650;53.580;10.094;2022-07-23T12:12:24;19.40;54.70
7218;DHT22;3650;53.580;10.094;2022-07-23T12:14:53;19.50;55.10
7218;DHT22;3650;53.580;10.094;2022-07-23T12:17:24;19.50;55.20
7218;DHT22;3650;53.580;10.094;2022-07-23T12:19:54;19.40;55.80
7218;DHT22;3650;53.580;10.094;2022-07-23T12:22:21;19.50;54.70
7218;DHT22;3650;53.580;10.094;2022-07-23T12:24:57;19.50;55.00
7218;DHT22;3650;53.580;10.094;2022-07-23T12:27:25;19.50;53.50
7218;DHT22;3650;53.580;10.094;2022-07-23T12:29:52;19.60;53.70
7218;DHT22;3650;53.580;10.094;2022-07-23T12:32:21;19.70;54.20
7218;DHT22;3650;53.580;10.094;2022-07-23T12:34:49;19.70;52.40
7218;DHT22;3650;53.580;10.094;2022-07-23T12:37:28;19.80;52.60
7218;DHT22;3650;53.580;10.094;2022-07-23T12:39:56;19.80;53.00
7218;DHT22;3650;53.580;10.094;2022-07-23T12:42:24;19.70;50.90
7218;DHT22;3650;53.580;10.094;2022-07-23T12:45:08;19.80;51.00
7218;DHT22;3650;53.580;10.094;2022-07-23T12:47:52;19.70;50.00
7218;DHT22;3650;53.580;10.094;2022-07-23T12:50:40;19.70;50.40
7218;DHT22;3650;53.580;10.094;2022-07-23T12:53:10;19.80;51.60
7218;DHT22;3650;53.580;10.094;2022-07-23T12:55:40;19.90;51.10
7218;DHT22;3650;53.580;10.094;2022-07-23T12:58:14;19.90;50.10
7218;DHT22;3650;53.580;10.094;2022-07-23T13:01:00;19.90;50.50
7218;DHT22;3650;53.580;10.094;2022-07-23T13:03:36;19.90;49.50
7218;DHT22;3650;53.580;10.094;2022-07-23T13:06:05;19.80;50.20
7218;DHT22;3650;53.580;10.094;2022-07-23T13:08:33;19.80;49.70
7218;DHT22;3650;53.580;10.094;2022-07-23T13:11:02;19.80;49.40
7218;DHT22;3650;53.580;10.094;2022-07-23T13:13:31;19.90;48.50
7218;DHT22;3650;53.580;10.094;2022-07-23T13:15:59;20.00;49.10
7218;DHT22;3650;53.580;10.094;2022-07-23T13:18:27;20.10;49.10
7218;DHT22;3650;53.580;10.094;2022-07-23T13:20:54;20.00;48.40
7218;DHT22;3650;53.580;10.094;2022-07-23T13:23:22;20.10;47.30
7218;DHT22;3650;53.580;10.094;2022-07-23T13:25:49;20.10;48.90
7218;DHT22;3650;53.580;10.094;2022-07-23T13:28:19;20.10;48.50
7218;DHT22;3650;53.580;10.094;2022-07-23T13:30:47;20.00;48.20
7218;DHT22;3650;53.580;10.094;2022-07-23T13:33:18;19.90;47.40
7218;DHT22;3650;53.580;10.094;2022-07-23T13:35:45;19.90;48.20
7218;DHT22;3650;53.580;10.094;2022-07-23T13:38:12;19.90;47.50
7218;DHT22;3650;53.580;10.094;2022-07-23T13:40:41;19.90;47.90
7218;DHT22;3650;53.580;10.094;2022-07-23T13:43:09;19.90;48.90
7218;DHT22;3650;53.580;10.094;2022-07-23T13:45:38;19.90;47.80
7218;DHT22;3650;53.580;10.094;2022-07-23T13:48:06;19.80;48.30
7218;DHT22;3650;53.580;10.094;2022-07-23T13:50:32;19.70;48.40
7218;DHT22;3650;53.580;10.094;2022-07-23T13:53:01;19.70;48.50
7218;DHT22;3650;53.580;10.094;2022-07-23T13:55:28;19.60;49.60
7218;DHT22;3650;53.580;10.094;2022-07-23T13:57:55;19.60;48.90
7218;DHT22;3650;53.580;10.094;2022-07-23T14:00:22;19.60;49.70
7218;DHT22;3650;53.580;10.094;2022-07-23T14:02:50;19.60;50.80
7218;DHT22;3650;53.580;10.094;2022-07-23T14:05:17;19.60;50.40
7218;DHT22;3650;53.580;10.094;2022-07-23T14:07:44;19.70;51.10
7218;DHT22;3650;53.580;10.094;2022-07-23T14:10:12;19.80;50.10
7218;DHT22;3650;53.580;10.094;2022-07-23T14:12:40;19.90;49.20
7218;DHT22;3650;53.580;10.094;2022-07-23T14:15:07;20.00;48.70
7218;DHT22;3650;53.580;10.094;2022-07-23T14:17:38;20.00;48.60
7218;DHT22;3650;53.580;10.094;2022-07-23T14:20:08;19.90;49.40
7218;DHT22;3650;53.580;10.094;2022-07-23T14:22:35;19.90;50.20
7218;DHT22;3650;53.580;10.094;2022-07-23T14:25:04;19.80;49.30
7218;DHT22;3650;53.580;10.094;2022-07-23T14:27:31;19.80;49.20
7218;DHT22;3650;53.580;10.094;2022-07-23T14:29:58;19.70;49.80
7218;DHT22;3650;53.580;10.094;2022-07-23T14:32:25;19.70;48.70
7218;DHT22;3650;53.580;10.094;2022-07-23T14:34:52;19.70;49.80
7218;DHT22;3650;53.580;10.094;2022-07-23T14:37:20;19.80;49.50
7218;DHT22;3650;53.580;10.094;2022-07-23T14:39:47;19.90;48.60
7218;DHT22;3650;53.580;10.094;2022-07-23T14:42:14;20.00;47.70
7218;DHT22;3650;53.580;10.094;2022-07-23T14:44:41;20.30;47.60
7218;DHT22;3650;53.580;10.094;2022-07-23T14:47:09;20.50;47.00
7218;DHT22;3650;53.580;10.094;2022-07-23T14:49:35;20.50;44.50
7218;DHT22;3650;53.580;10.094;2022-07-23T14:52:04;20.60;43.60
7218;DHT22;3650;53.580;10.094;2022-07-23T14:54:33;20.70;42.80
7218;DHT22;3650;53.580;10.094;2022-07-23T14:57:01;20.80;42.40
7218;DHT22;3650;53.580;10.094;2022-07-23T14:59:29;20.70;43.10
7218;DHT22;3650;53.580;10.094;2022-07-23T15:01:57;20.60;43.40
7218;DHT22;3650;53.580;10.094;2022-07-23T15:04:24;20.60;43.20
7218;DHT22;3650;53.580;10.094;2022-07-23T15:06:50;20.60;42.50
7218;DHT22;3650;53.580;10.094;2022-07-23T15:09:17;20.50;43.30
7218;DHT22;3650;53.580;10.094;2022-07-23T15:11:46;20.50;43.80
7218;DHT22;3650;53.580;10.094;2022-07-23T15:14:12;20.50;43.60
7218;DHT22;3650;53.580;10.094;2022-07-23T15:16:39;20.40;45.20
7218;DHT22;3650;53.580;10.094;2022-07-23T15:19:06;20.30;45.70
7218;DHT22;3650;53.580;10.094;2022-07-23T15:21:33;20.30;44.70
7218;DHT22;3650;53.580;10.094;2022-07-23T15:24:00;20.20;43.50
7218;DHT22;3650;53.580;10.094;2022-07-23T15:26:27;20.20;44.70
7218;DHT22;3650;53.580;10.094;2022-07-23T15:28:55;20.20;44.20
7218;DHT22;3650;53.580;10.094;2022-07-23T15:31:24;20.10;44.50
7218;DHT22;3650;53.580;10.094;2022-07-23T15:33:51;20.10;44.70
7218;DHT22;3650;53.580;10.094;2022-07-23T15:36:18;20.10;45.60
7218;DHT22;3650;53.580;10.094;2022-07-23T15:38:45;20.00;45.50
7218;DHT22;3650;53.580;10.094;2022-07-23T15:41:13;20.00;46.90
7218;DHT22;3650;53.580;10.094;2022-07-23T15:43:39;20.00;46.30
7218;DHT22;3650;53.580;10.094;2022-07-23T15:46:08;20.00;47.70
7218;DHT22;3650;53.580;10.094;2022-07-23T15:48:35;20.00;45.60
7218;DHT22;3650;53.580;10.094;2022-07-23T15:51:03;19.90;45.40
7218;DHT22;3650;53.580;10.094;2022-07-23T15:53:31;19.90;45.40